sensor_id;sensor_type;location;lat;lon;timestamp;pressure;altitude;pressure_sealevel;temperature;humidity
33625;BME280;19962;47.820;1.930;2023-03-04T00:02:03;101394.63;;;6.68;61.70
33625;BME280;19962;47.820;1.930;2023-03-04T00:04:30;101401.28;;;6.65;61.74
33625;BME280;19962;47.820;1.930;2023-03-04T00:06:56;101388.03;;;6.62;61.96
33625;BME280;19962;47.820;1.930;2023-03-04T00:09:22;101395.91;;;6.57;62.27
33625;BME280;19962;47.820;1.930;2023-03-04T00:11:48;101397.25;;;6.61;62.44
33625;BME280;19962;47.820;1.930;2023-03-04T00:14:14;101394.81;;;6.66;62.18
33625;BME280;19962;47.820;1.930;2023-03-04T00:16:40;101398.59;;;6.43;62.79
33625;BME280;19962;47.820;1.930;2023-03-04T00:19:06;101395.16;;;6.49;62.80
33625;BME280;19962;47.820;1.930;2023-03-04T00:21:32;101396.78;;;6.35;63.06
33625;BME280;19962;47.820;1.930;2023-03-04T00:23:59;101393.31;;;6.41;63.06
33625;BME280;19962;47.820;1.930;2023-03-04T00:26:25;101394.28;;;6.48;62.81
33625;BME280;19962;47.820;1.930;2023-03-04T00:28:51;101391.91;;;6.45;63.11
33625;BME280;19962;47.820;1.930;2023-03-04T00:31:17;101393.13;;;6.43;63.24
33625;BME280;19962;47.820;1.930;2023-03-04T00:33:43;101382.63;;;6.54;63.26
33625;BME280;19962;47.820;1.930;2023-03-04T00:36:10;101385.75;;;6.51;62.87
33625;BME280;19962;47.820;1.930;2023-03-04T00:38:37;101392.22;;;6.50;62.92
33625;BME280;19962;47.820;1.930;2023-03-04T00:41:03;101386.91;;;6.34;63.37
33625;BME280;19962;47.820;1.930;2023-03-04T00:43:29;101399.69;;;6.34;63.50
33625;BME280;19962;47.820;1.930;2023-03-04T00:45:57;101392.66;;;6.39;63.39
33625;BME280;19962;47.820;1.930;2023-03-04T00:48:23;101392.44;;;6.49;63.24
33625;BME280;19962;47.820;1.930;2023-03-04T00:50:49;101389.25;;;6.60;62.77
33625;BME280;19962;47.820;1.930;2023-03-04T00:53:18;101400.63;;;6.63;62.50
33625;BME280;19962;47.820;1.930;2023-03-04T00:55:44;101394.00;;;6.43;62.96
33625;BME280;19962;47.820;1.930;2023-03-04T00:58:10;101405.13;;;6.34;63.28
33625;BME280;19962;47.820;1.930;2023-03-04T01:00:36;101403.44;;;6.33;63.23
33625;BME280;19962;47.820;1.930;2023-03-04T01:03:02;101397.94;;;6.41;63.58
33625;BME280;19962;47.820;1.930;2023-03-04T01:05:28;101398.63;;;6.20;63.83
33625;BME280;19962;47.820;1.930;2023-03-04T01:07:55;101404.06;;;6.20;64.05
33625;BME280;19962;47.820;1.930;2023-03-04T01:10:21;101405.16;;;6.11;64.21
33625;BME280;19962;47.820;1.930;2023-03-04T01:12:47;101405.56;;;6.23;63.84
33625;BME280;19962;47.820;1.930;2023-03-04T01:15:13;101408.91;;;6.10;64.42
33625;BME280;19962;47.820;1.930;2023-03-04T01:17:40;101404.22;;;5.96;64.67
33625;BME280;19962;47.820;1.930;2023-03-04T01:20:07;101407.53;;;5.84;65.33
33625;BME280;19962;47.820;1.930;2023-03-04T01:22:34;101403.56;;;5.94;65.07
33625;BME280;19962;47.820;1.930;2023-03-04T01:25:00;101405.97;;;5.89;65.09
33625;BME280;19962;47.820;1.930;2023-03-04T01:27:26;101408.88;;;5.88;65.39
33625;BME280;19962;47.820;1.930;2023-03-04T01:29:52;101403.00;;;5.99;65.01
33625;BME280;19962;47.820;1.930;2023-03-04T01:32:18;101408.06;;;6.10;64.72
33625;BME280;19962;47.820;1.930;2023-03-04T01:34:44;101407.44;;;6.00;64.93
33625;BME280;19962;47.820;1.930;2023-03-04T01:37:10;101412.75;;;5.93;65.12
33625;BME280;19962;47.820;1.930;2023-03-04T01:39:38;101403.50;;;6.02;64.81
33625;BME280;19962;47.820;1.930;2023-03-04T01:42:05;101397.50;;;6.07;64.67
33625;BME280;19962;47.820;1.930;2023-03-04T01:44:31;101399.19;;;5.85;65.38
33625;BME280;19962;47.820;1.930;2023-03-04T01:46:57;101394.31;;;5.73;65.50
33625;BME280;19962;47.820;1.930;2023-03-04T01:49:24;101393.06;;;5.83;65.63
33625;BME280;19962;47.820;1.930;2023-03-04T01:51:52;101385.28;;;5.80;65.66
33625;BME280;19962;47.820;1.930;2023-03-04T01:54:20;101383.19;;;5.82;65.54
33625;BME280;19962;47.820;1.930;2023-03-04T01:56:49;101392.56;;;6.10;65.09
33625;BME280;19962;47.820;1.930;2023-03-04T01:59:21;101390.25;;;5.99;65.14
33625;BME280;19962;47.820;1.930;2023-03-04T02:01:55;101384.19;;;5.89;65.70
33625;BME280;19962;47.820;1.930;2023-03-04T02:04:27;101381.50;;;5.81;65.55
33625;BME280;19962;47.820;1.930;2023-03-04T02:06:55;101369.25;;;5.77;65.51
33625;BME280;19962;47.820;1.930;2023-03-04T02:09:22;101374.56;;;5.71;65.70
33625;BME280;19962;47.820;1.930;2023-03-04T02:11:49;101370.50;;;5.67;66.22
33625;BME280;19962;47.820;1.930;2023-03-04T02:14:17;101376.22;;;5.80;65.67
33625;BME280;19962;47.820;1.930;2023-03-04T02:16:44;101374.38;;;5.80;65.77
33625;BME280;19962;47.820;1.930;2023-03-04T02:21:42;101367.72;;;6.05;65.06
33625;BME280;19962;47.820;1.930;2023-03-04T02:26:44;101358.78;;;6.19;64.39
33625;BME280;19962;47.820;1.930;2023-03-04T02:29:13;101364.41;;;5.95;64.78
33625;BME280;19962;47.820;1.930;2023-03-04T02:31:44;101366.25;;;5.64;65.69
33625;BME280;19962;47.820;1.930;2023-03-04T02:34:20;101354.47;;;5.72;65.65
33625;BME280;19962;47.820;1.930;2023-03-04T02:36:49;101362.59;;;5.80;65.93
33625;BME280;19962;47.820;1.930;2023-03-04T02:39:35;101356.13;;;5.50;66.38
33625;BME280;19962;47.820;1.930;2023-03-04T02:42:02;101350.06;;;5.40;66.79
33625;BME280;19962;47.820;1.930;2023-03-04T02:44:34;101351.59;;;5.43;67.15
33625;BME280;19962;47.820;1.930;2023-03-04T02:47:03;101360.19;;;5.24;67.37
33625;BME280;19962;47.820;1.930;2023-03-04T02:49:30;101354.81;;;5.38;67.15
33625;BME280;19962;47.820;1.930;2023-03-04T02:54:31;101350.91;;;5.71;66.23
33625;BME280;19962;47.820;1.930;2023-03-04T02:57:03;101346.13;;;5.51;66.42
33625;BME280;19962;47.820;1.930;2023-03-04T02:59:30;101352.38;;;5.51;66.60
33625;BME280;19962;47.820;1.930;2023-03-04T03:01:56;101348.59;;;5.30;67.47
33625;BME280;19962;47.820;1.930;2023-03-04T03:04:23;101347.66;;;5.45;66.92
33625;BME280;19962;47.820;1.930;2023-03-04T03:06:50;101347.19;;;5.42;67.12
33625;BME280;19962;47.820;1.930;2023-03-04T03:09:17;101351.03;;;5.47;66.67
33625;BME280;19962;47.820;1.930;2023-03-04T03:11:43;101348.25;;;5.63;66.39
33625;BME280;19962;47.820;1.930;2023-03-04T03:14:10;101349.94;;;5.64;65.99
33625;BME280;19962;47.820;1.930;2023-03-04T03:16:36;101350.22;;;5.47;66.33
33625;BME280;19962;47.820;1.930;2023-03-04T03:19:02;101352.38;;;5.51;66.56
33625;BME280;19962;47.820;1.930;2023-03-04T03:21:28;101360.06;;;5.48;66.63
33625;BME280;19962;47.820;1.930;2023-03-04T03:23:54;101359.66;;;5.59;66.17
33625;BME280;19962;47.820;1.930;2023-03-04T03:26:21;101354.59;;;5.56;66.01
33625;BME280;19962;47.820;1.930;2023-03-04T03:28:47;101354.69;;;5.32;66.72
33625;BME280;19962;47.820;1.930;2023-03-04T03:31:13;101350.41;;;5.37;66.51
33625;BME280;19962;47.820;1.930;2023-03-04T03:33:39;101351.91;;;5.09;67.39
33625;BME280;19962;47.820;1.930;2023-03-04T03:36:06;101355.66;;;5.08;67.80
33625;BME280;19962;47.820;1.930;2023-03-04T03:38:32;101344.50;;;5.34;66.98
33625;BME280;19962;47.820;1.930;2023-03-04T03:40:58;101353.56;;;5.26;67.05
33625;BME280;19962;47.820;1.930;2023-03-04T03:43:24;101349.34;;;5.08;67.60
33625;BME280;19962;47.820;1.930;2023-03-04T03:45:50;101351.81;;;5.25;67.29
33625;BME280;19962;47.820;1.930;2023-03-04T03:48:17;101359.00;;;5.26;67.38
33625;BME280;19962;47.820;1.930;2023-03-04T03:50:43;101357.97;;;5.19;67.42
33625;BME280;19962;47.820;1.930;2023-03-04T03:53:10;101353.75;;;5.17;67.42
33625;BME280;19962;47.820;1.930;2023-03-04T03:55:36;101350.75;;;5.34;66.78
33625;BME280;19962;47.820;1.930;2023-03-04T03:58:04;101360.59;;;5.43;66.59
33625;BME280;19962;47.820;1.930;2023-03-04T04:00:30;101356.00;;;5.44;66.14
33625;BME280;19962;47.820;1.930;2023-03-04T04:02:57;101354.88;;;5.30;66.63
33625;BME280;19962;47.820;1.930;2023-03-04T04:05:25;101347.69;;;5.37;66.71
33625;BME280;19962;47.820;1.930;2023-03-04T04:07:51;101354.06;;;5.52;66.21
33625;BME280;19962;47.820;1.930;2023-03-04T04:10:17;101364.47;;;5.10;66.94
33625;BME280;19962;47.820;1.930;2023-03-04T04:12:43;101359.53;;;5.14;67.15
33625;BME280;19962;47.820;1.930;2023-03-04T04:15:11;101362.53;;;5.27;66.83
33625;BME280;19962;47.820;1.930;2023-03-04T04:17:37;101358.94;;;5.34;66.65
33625;BME280;19962;47.820;1.930;2023-03-04T04:20:05;101362.25;;;5.52;66.28
33625;BME280;19962;47.820;1.930;2023-03-04T04:22:31;101364.72;;;5.39;66.16
33625;BME280;19962;47.820;1.930;2023-03-04T04:24:57;101363.16;;;4.98;66.62
33625;BME280;19962;47.820;1.930;2023-03-04T04:27:23;101374.09;;;4.74;67.59
33625;BME280;19962;47.820;1.930;2023-03-04T04:29:49;101370.63;;;5.04;67.19
33625;BME280;19962;47.820;1.930;2023-03-04T04:32:15;101378.09;;;5.02;67.12
33625;BME280;19962;47.820;1.930;2023-03-04T04:34:41;101370.31;;;4.91;67.48
33625;BME280;19962;47.820;1.930;2023-03-04T04:37:08;101371.50;;;4.97;67.39
33625;BME280;19962;47.820;1.930;2023-03-04T04:39:34;101382.59;;;4.71;67.88
33625;BME280;19962;47.820;1.930;2023-03-04T04:42:00;101383.44;;;4.72;67.86
33625;BME280;19962;47.820;1.930;2023-03-04T04:44:26;101384.16;;;4.58;68.45
33625;BME280;19962;47.820;1.930;2023-03-04T04:46:52;101386.16;;;4.72;68.10
33625;BME280;19962;47.820;1.930;2023-03-04T04:49:18;101389.56;;;4.74;68.14
33625;BME280;19962;47.820;1.930;2023-03-04T04:51:44;101380.50;;;4.97;68.05
33625;BME280;19962;47.820;1.930;2023-03-04T04:54:13;101380.28;;;5.15;67.34
33625;BME280;19962;47.820;1.930;2023-03-04T04:56:40;101375.31;;;5.26;66.61
33625;BME280;19962;47.820;1.930;2023-03-04T04:59:06;101376.97;;;5.35;66.46
33625;BME280;19962;47.820;1.930;2023-03-04T05:01:34;101376.31;;;5.25;66.56
33625;BME280;19962;47.820;1.930;2023-03-04T05:04:00;101385.03;;;5.13;66.80
33625;BME280;19962;47.820;1.930;2023-03-04T05:06:27;101391.84;;;5.09;66.85
33625;BME280;19962;47.820;1.930;2023-03-04T05:08:53;101380.81;;;5.02;67.14
33625;BME280;19962;47.820;1.930;2023-03-04T05:11:20;101395.13;;;4.88;67.34
33625;BME280;19962;47.820;1.930;2023-03-04T05:13:46;101397.53;;;4.75;68.26
33625;BME280;19962;47.820;1.930;2023-03-04T05:16:13;101399.22;;;4.76;68.20
33625;BME280;19962;47.820;1.930;2023-03-04T05:18:40;101396.34;;;4.70;68.04
33625;BME280;19962;47.820;1.930;2023-03-04T05:21:06;101400.28;;;4.51;68.56
33625;BME280;19962;47.820;1.930;2023-03-04T05:23:35;101402.50;;;4.48;68.90
33625;BME280;19962;47.820;1.930;2023-03-04T05:26:03;101403.19;;;4.50;68.86
33625;BME280;19962;47.820;1.930;2023-03-04T05:28:30;101406.75;;;4.42;69.32
33625;BME280;19962;47.820;1.930;2023-03-04T05:30:57;101399.78;;;4.48;69.10
33625;BME280;19962;47.820;1.930;2023-03-04T05:33:23;101400.78;;;4.55;69.13
33625;BME280;19962;47.820;1.930;2023-03-04T05:35:50;101401.28;;;4.58;68.80
33625;BME280;19962;47.820;1.930;2023-03-04T05:38:18;101404.00;;;4.66;68.77
33625;BME280;19962;47.820;1.930;2023-03-04T05:40:45;101402.66;;;4.62;68.67
33625;BME280;19962;47.820;1.930;2023-03-04T05:43:11;101407.22;;;4.78;68.37
33625;BME280;19962;47.820;1.930;2023-03-04T05:45:38;101407.88;;;4.88;67.80
33625;BME280;19962;47.820;1.930;2023-03-04T05:48:05;101413.03;;;4.59;68.71
33625;BME280;19962;47.820;1.930;2023-03-04T05:50:31;101413.84;;;4.75;68.60
33625;BME280;19962;47.820;1.930;2023-03-04T05:52:58;101421.34;;;4.73;68.37
33625;BME280;19962;47.820;1.930;2023-03-04T05:55:25;101423.38;;;4.71;68.43
33625;BME280;19962;47.820;1.930;2023-03-04T05:57:52;101416.72;;;4.74;68.72
33625;BME280;19962;47.820;1.930;2023-03-04T06:00:18;101421.34;;;4.73;68.48
33625;BME280;19962;47.820;1.930;2023-03-04T06:02:45;101425.06;;;4.80;68.13
33625;BME280;19962;47.820;1.930;2023-03-04T06:05:12;101422.84;;;4.84;68.13
33625;BME280;19962;47.820;1.930;2023-03-04T06:07:39;101427.09;;;4.86;68.07
33625;BME280;19962;47.820;1.930;2023-03-04T06:10:06;101436.94;;;4.87;68.20
33625;BME280;19962;47.820;1.930;2023-03-04T06:12:32;101432.22;;;4.81;67.93
33625;BME280;19962;47.820;1.930;2023-03-04T06:14:58;101431.84;;;4.76;68.29
33625;BME280;19962;47.820;1.930;2023-03-04T06:17:24;101429.00;;;4.62;68.57
33625;BME280;19962;47.820;1.930;2023-03-04T06:19:50;101442.22;;;4.65;69.02
33625;BME280;19962;47.820;1.930;2023-03-04T06:22:16;101444.78;;;4.74;68.79
33625;BME280;19962;47.820;1.930;2023-03-04T06:24:42;101449.19;;;4.67;68.63
33625;BME280;19962;47.820;1.930;2023-03-04T06:27:09;101456.50;;;4.43;69.38
33625;BME280;19962;47.820;1.930;2023-03-04T06:29:35;101459.38;;;4.49;69.83
33625;BME280;19962;47.820;1.930;2023-03-04T06:32:01;101463.31;;;4.63;69.24
33625;BME280;19962;47.820;1.930;2023-03-04T06:34:27;101467.22;;;4.68;69.32
33625;BME280;19962;47.820;1.930;2023-03-04T06:36:54;101456.50;;;4.75;69.02
33625;BME280;19962;47.820;1.930;2023-03-04T06:39:20;101455.97;;;4.71;68.84
33625;BME280;19962;47.820;1.930;2023-03-04T06:41:47;101463.09;;;4.88;68.46
33625;BME280;19962;47.820;1.930;2023-03-04T06:44:13;101472.63;;;4.84;68.28
33625;BME280;19962;47.820;1.930;2023-03-04T06:46:40;101472.81;;;4.67;68.92
33625;BME280;19962;47.820;1.930;2023-03-04T06:49:06;101479.44;;;4.64;69.36
33625;BME280;19962;47.820;1.930;2023-03-04T06:51:32;101478.09;;;4.60;69.39
33625;BME280;19962;47.820;1.930;2023-03-04T06:53:58;101483.16;;;4.63;69.44
33625;BME280;19962;47.820;1.930;2023-03-04T06:56:24;101473.50;;;4.77;69.19
33625;BME280;19962;47.820;1.930;2023-03-04T06:58:51;101471.44;;;4.79;69.14
33625;BME280;19962;47.820;1.930;2023-03-04T07:01:19;101482.47;;;4.85;68.85
33625;BME280;19962;47.820;1.930;2023-03-04T07:03:47;101485.88;;;4.79;68.93
33625;BME280;19962;47.820;1.930;2023-03-04T07:06:16;101489.97;;;4.99;68.71
33625;BME280;19962;47.820;1.930;2023-03-04T07:08:42;101485.53;;;4.98;68.08
33625;BME280;19962;47.820;1.930;2023-03-04T07:11:09;101484.00;;;4.88;68.46
33625;BME280;19962;47.820;1.930;2023-03-04T07:13:36;101487.56;;;5.04;68.40
33625;BME280;19962;47.820;1.930;2023-03-04T07:16:07;101491.81;;;5.07;68.23
33625;BME280;19962;47.820;1.930;2023-03-04T07:18:34;101489.44;;;4.96;68.27
33625;BME280;19962;47.820;1.930;2023-03-04T07:21:00;101486.72;;;4.96;68.68
33625;BME280;19962;47.820;1.930;2023-03-04T07:23:27;101489.75;;;5.01;68.43
33625;BME280;19962;47.820;1.930;2023-03-04T07:25:53;101494.00;;;5.19;68.28
33625;BME280;19962;47.820;1.930;2023-03-04T07:28:19;101484.31;;;5.17;68.21
33625;BME280;19962;47.820;1.930;2023-03-04T07:30:45;101490.56;;;5.33;67.79
33625;BME280;19962;47.820;1.930;2023-03-04T07:33:12;101496.28;;;5.54;67.44
33625;BME280;19962;47.820;1.930;2023-03-04T07:35:38;101510.34;;;5.03;68.93
33625;BME280;19962;47.820;1.930;2023-03-04T07:38:05;101502.00;;;5.21;68.57
33625;BME280;19962;47.820;1.930;2023-03-04T07:40:31;101506.28;;;4.99;69.60
33625;BME280;19962;47.820;1.930;2023-03-04T07:42:58;101502.88;;;5.05;69.33
33625;BME280;19962;47.820;1.930;2023-03-04T07:45:24;101510.00;;;5.22;69.08
33625;BME280;19962;47.820;1.930;2023-03-04T07:47:51;101515.09;;;4.93;69.83
33625;BME280;19962;47.820;1.930;2023-03-04T07:50:18;101516.97;;;5.09;69.84
33625;BME280;19962;47.820;1.930;2023-03-04T07:52:46;101521.91;;;5.13;69.82
33625;BME280;19962;47.820;1.930;2023-03-04T07:55:14;101524.47;;;5.15;69.89
33625;BME280;19962;47.820;1.930;2023-03-04T07:57:42;101520.88;;;4.98;70.58
33625;BME280;19962;47.820;1.930;2023-03-04T08:00:10;101532.28;;;4.78;71.67
33625;BME280;19962;47.820;1.930;2023-03-04T08:02:37;101534.16;;;5.01;71.16
33625;BME280;19962;47.820;1.930;2023-03-04T08:05:04;101534.47;;;5.14;70.90
33625;BME280;19962;47.820;1.930;2023-03-04T08:07:30;101533.78;;;5.20;70.65
33625;BME280;19962;47.820;1.930;2023-03-04T08:09:56;101533.94;;;5.27;70.70
33625;BME280;19962;47.820;1.930;2023-03-04T08:12:22;101528.66;;;5.33;70.65
33625;BME280;19962;47.820;1.930;2023-03-04T08:14:51;101534.91;;;5.50;70.07
33625;BME280;19962;47.820;1.930;2023-03-04T08:17:18;101533.03;;;5.58;70.04
33625;BME280;19962;47.820;1.930;2023-03-04T08:19:44;101533.88;;;5.59;69.96
33625;BME280;19962;47.820;1.930;2023-03-04T08:22:10;101531.97;;;5.75;69.69
33625;BME280;19962;47.820;1.930;2023-03-04T08:24:37;101535.75;;;5.58;70.21
33625;BME280;19962;47.820;1.930;2023-03-04T08:27:03;101531.66;;;5.70;69.74
33625;BME280;19962;47.820;1.930;2023-03-04T08:29:29;101526.50;;;5.75;69.60
33625;BME280;19962;47.820;1.930;2023-03-04T08:31:56;101534.16;;;5.88;69.25
33625;BME280;19962;47.820;1.930;2023-03-04T08:34:25;101529.31;;;5.43;70.68
33625;BME280;19962;47.820;1.930;2023-03-04T08:36:52;101532.34;;;5.56;70.71
33625;BME280;19962;47.820;1.930;2023-03-04T08:39:19;101531.78;;;5.85;70.10
33625;BME280;19962;47.820;1.930;2023-03-04T08:41:46;101533.72;;;5.52;70.84
33625;BME280;19962;47.820;1.930;2023-03-04T08:44:12;101542.53;;;5.70;70.64
33625;BME280;19962;47.820;1.930;2023-03-04T08:46:40;101524.47;;;5.85;70.38
33625;BME280;19962;47.820;1.930;2023-03-04T08:49:07;101540.09;;;5.91;69.99
33625;BME280;19962;47.820;1.930;2023-03-04T08:51:34;101535.94;;;6.03;70.01
33625;BME280;19962;47.820;1.930;2023-03-04T08:54:04;101543.97;;;5.97;69.99
33625;BME280;19962;47.820;1.930;2023-03-04T08:56:30;101537.47;;;6.06;69.84
33625;BME280;19962;47.820;1.930;2023-03-04T08:58:57;101537.19;;;5.77;70.45
33625;BME280;19962;47.820;1.930;2023-03-04T09:01:23;101540.41;;;5.96;70.12
33625;BME280;19962;47.820;1.930;2023-03-04T09:03:49;101550.91;;;6.07;69.75
33625;BME280;19962;47.820;1.930;2023-03-04T09:06:16;101553.63;;;6.15;69.52
33625;BME280;19962;47.820;1.930;2023-03-04T09:08:43;101545.31;;;6.09;69.57
33625;BME280;19962;47.820;1.930;2023-03-04T09:11:10;101545.34;;;6.31;69.25
33625;BME280;19962;47.820;1.930;2023-03-04T09:13:37;101543.50;;;6.54;68.76
33625;BME280;19962;47.820;1.930;2023-03-04T09:16:11;101541.00;;;6.67;68.42
33625;BME280;19962;47.820;1.930;2023-03-04T09:18:38;101536.00;;;6.56;68.64
33625;BME280;19962;47.820;1.930;2023-03-04T09:21:06;101537.34;;;6.60;68.52
33625;BME280;19962;47.820;1.930;2023-03-04T09:23:33;101541.69;;;6.69;68.41
33625;BME280;19962;47.820;1.930;2023-03-04T09:25:59;101543.75;;;6.90;68.20
33625;BME280;19962;47.820;1.930;2023-03-04T09:28:26;101540.09;;;6.97;67.98
33625;BME280;19962;47.820;1.930;2023-03-04T09:30:52;101543.56;;;6.91;67.95
33625;BME280;19962;47.820;1.930;2023-03-04T09:33:18;101545.22;;;7.00;67.76
33625;BME280;19962;47.820;1.930;2023-03-04T09:35:44;101543.34;;;7.15;67.72
33625;BME280;19962;47.820;1.930;2023-03-04T09:38:10;101547.41;;;7.19;67.10
33625;BME280;19962;47.820;1.930;2023-03-04T09:40:42;101544.69;;;7.19;66.69
33625;BME280;19962;47.820;1.930;2023-03-04T09:43:21;101547.59;;;7.18;66.79
33625;BME280;19962;47.820;1.930;2023-03-04T09:45:55;101537.25;;;7.28;66.66
33625;BME280;19962;47.820;1.930;2023-03-04T09:48:24;101545.59;;;7.49;66.10
33625;BME280;19962;47.820;1.930;2023-03-04T09:56:19;101544.28;;;7.59;65.37
33625;BME280;19962;47.820;1.930;2023-03-04T10:01:29;101546.94;;;7.82;64.80
33625;BME280;19962;47.820;1.930;2023-03-04T10:04:36;101548.25;;;7.71;64.93
33625;BME280;19962;47.820;1.930;2023-03-04T10:07:16;101536.56;;;7.92;64.32
33625;BME280;19962;47.820;1.930;2023-03-04T10:10:04;101543.16;;;7.68;63.32
33625;BME280;19962;47.820;1.930;2023-03-04T10:12:34;101539.03;;;7.72;64.13
33625;BME280;19962;47.820;1.930;2023-03-04T10:15:31;101545.22;;;7.81;64.00
33625;BME280;19962;47.820;1.930;2023-03-04T10:23:45;101543.88;;;8.35;62.31
33625;BME280;19962;47.820;1.930;2023-03-04T10:26:15;101537.75;;;8.33;61.75
33625;BME280;19962;47.820;1.930;2023-03-04T10:28:43;101539.19;;;8.29;61.80
33625;BME280;19962;47.820;1.930;2023-03-04T10:31:32;101539.25;;;8.35;61.24
33625;BME280;19962;47.820;1.930;2023-03-04T10:34:05;101538.53;;;8.27;60.83
33625;BME280;19962;47.820;1.930;2023-03-04T10:39:19;101528.84;;;8.24;60.25
33625;BME280;19962;47.820;1.930;2023-03-04T10:42:04;101531.06;;;8.35;60.71
33625;BME280;19962;47.820;1.930;2023-03-04T10:44:32;101518.69;;;8.39;60.33
33625;BME280;19962;47.820;1.930;2023-03-04T10:46:59;101528.50;;;8.34;60.13
33625;BME280;19962;47.820;1.930;2023-03-04T10:49:27;101516.66;;;8.27;60.44
33625;BME280;19962;47.820;1.930;2023-03-04T10:52:22;101530.41;;;8.33;59.76
33625;BME280;19962;47.820;1.930;2023-03-04T10:54:57;101529.56;;;8.18;59.69
33625;BME280;19962;47.820;1.930;2023-03-04T10:59:59;101527.94;;;8.38;59.51
33625;BME280;19962;47.820;1.930;2023-03-04T11:02:32;101529.91;;;8.44;59.57
33625;BME280;19962;47.820;1.930;2023-03-04T11:07:32;101523.69;;;8.71;58.98
33625;BME280;19962;47.820;1.930;2023-03-04T11:10:08;101518.22;;;8.71;58.34
33625;BME280;19962;47.820;1.930;2023-03-04T11:12:35;101515.84;;;8.68;58.61
33625;BME280;19962;47.820;1.930;2023-03-04T11:15:02;101513.53;;;8.65;58.46
33625;BME280;19962;47.820;1.930;2023-03-04T11:17:51;101504.28;;;8.66;58.23
33625;BME280;19962;47.820;1.930;2023-03-04T11:20:32;101505.97;;;8.67;58.31
33625;BME280;19962;47.820;1.930;2023-03-04T11:23:13;101491.78;;;8.78;57.85
33625;BME280;19962;47.820;1.930;2023-03-04T11:25:46;101490.47;;;8.74;57.31
33625;BME280;19962;47.820;1.930;2023-03-04T11:28:17;101487.06;;;8.72;57.66
33625;BME280;19962;47.820;1.930;2023-03-04T11:31:00;101484.47;;;8.64;57.58
33625;BME280;19962;47.820;1.930;2023-03-04T11:33:50;101480.34;;;8.75;57.23
33625;BME280;19962;47.820;1.930;2023-03-04T11:38:54;101472.31;;;8.67;57.14
33625;BME280;19962;47.820;1.930;2023-03-04T11:41:29;101453.88;;;8.33;57.05
33625;BME280;19962;47.820;1.930;2023-03-04T11:43:58;101457.00;;;8.51;57.58
33625;BME280;19962;47.820;1.930;2023-03-04T11:49:13;101454.16;;;8.66;57.04
33625;BME280;19962;47.820;1.930;2023-03-04T12:08:20;101437.50;;;9.09;55.64
33625;BME280;19962;47.820;1.930;2023-03-04T12:11:11;101434.81;;;9.16;54.62
33625;BME280;19962;47.820;1.930;2023-03-04T12:19:26;101434.81;;;9.16;55.27
33625;BME280;19962;47.820;1.930;2023-03-04T12:27:53;101424.59;;;9.03;54.69
33625;BME280;19962;47.820;1.930;2023-03-04T12:36:27;101402.66;;;9.24;53.73
33625;BME280;19962;47.820;1.930;2023-03-04T12:44:23;101402.75;;;9.44;53.58
33625;BME280;19962;47.820;1.930;2023-03-04T12:46:56;101388.56;;;9.27;53.36
33625;BME280;19962;47.820;1.930;2023-03-04T12:55:03;101387.81;;;9.46;53.04
33625;BME280;19962;47.820;1.930;2023-03-04T12:57:34;101388.44;;;9.48;52.94
33625;BME280;19962;47.820;1.930;2023-03-04T13:08:37;101358.91;;;9.37;52.29
33625;BME280;19962;47.820;1.930;2023-03-04T13:11:51;101375.53;;;9.36;52.22
33625;BME280;19962;47.820;1.930;2023-03-04T13:16:50;101352.06;;;9.61;51.92
33625;BME280;19962;47.820;1.930;2023-03-04T13:19:55;101343.66;;;9.63;51.99
33625;BME280;19962;47.820;1.930;2023-03-04T13:25:34;101348.00;;;9.44;51.64
33625;BME280;19962;47.820;1.930;2023-03-04T13:28:12;101340.63;;;9.44;51.29
33625;BME280;19962;47.820;1.930;2023-03-04T13:43:37;101330.94;;;9.48;50.49
33625;BME280;19962;47.820;1.930;2023-03-04T13:56:47;101325.13;;;9.71;51.06
33625;BME280;19962;47.820;1.930;2023-03-04T13:59:40;101334.00;;;9.79;51.15
33625;BME280;19962;47.820;1.930;2023-03-04T14:04:39;101325.53;;;9.68;51.11
33625;BME280;19962;47.820;1.930;2023-03-04T14:10:05;101312.03;;;9.60;50.45
33625;BME280;19962;47.820;1.930;2023-03-04T14:12:35;101315.41;;;9.68;50.75
33625;BME280;19962;47.820;1.930;2023-03-04T14:17:39;101314.31;;;9.56;50.51
33625;BME280;19962;47.820;1.930;2023-03-04T14:20:36;101304.44;;;9.62;49.78
33625;BME280;19962;47.820;1.930;2023-03-04T14:23:21;101304.47;;;9.68;49.90
33625;BME280;19962;47.820;1.930;2023-03-04T14:25:48;101302.38;;;9.77;50.00
33625;BME280;19962;47.820;1.930;2023-03-04T14:28:17;101303.19;;;9.64;49.64
33625;BME280;19962;47.820;1.930;2023-03-04T14:30:51;101306.16;;;9.69;49.98
33625;BME280;19962;47.820;1.930;2023-03-04T14:33:24;101293.91;;;9.72;49.77
33625;BME280;19962;47.820;1.930;2023-03-04T14:35:54;101303.63;;;9.81;50.07
33625;BME280;19962;47.820;1.930;2023-03-04T14:41:01;101300.19;;;9.53;49.95
33625;BME280;19962;47.820;1.930;2023-03-04T14:43:28;101298.09;;;9.61;49.99
33625;BME280;19962;47.820;1.930;2023-03-04T14:45:57;101288.84;;;9.63;49.94
33625;BME280;19962;47.820;1.930;2023-03-04T14:48:30;101297.25;;;9.54;49.97
33625;BME280;19962;47.820;1.930;2023-03-04T14:50:59;101297.31;;;9.68;49.89
33625;BME280;19962;47.820;1.930;2023-03-04T14:53:28;101305.69;;;9.59;49.91
33625;BME280;19962;47.820;1.930;2023-03-04T14:56:06;101295.38;;;9.61;50.03
33625;BME280;19962;47.820;1.930;2023-03-04T14:58:35;101296.63;;;9.59;50.29
33625;BME280;19962;47.820;1.930;2023-03-04T15:01:29;101292.16;;;9.45;50.39
33625;BME280;19962;47.820;1.930;2023-03-04T15:06:28;101295.34;;;9.55;50.21
33625;BME280;19962;47.820;1.930;2023-03-04T15:11:28;101298.44;;;9.32;50.04
33625;BME280;19962;47.820;1.930;2023-03-04T15:13:57;101292.56;;;9.42;50.34
33625;BME280;19962;47.820;1.930;2023-03-04T15:16:26;101287.53;;;9.45;50.35
33625;BME280;19962;47.820;1.930;2023-03-04T15:19:05;101286.03;;;9.36;49.89
33625;BME280;19962;47.820;1.930;2023-03-04T15:21:48;101282.91;;;9.52;50.21
33625;BME280;19962;47.820;1.930;2023-03-04T15:24:14;101278.28;;;9.53;50.11